createdAt,value
2019-03-17T00:01:26.429Z,9.04
2019-03-17T00:03:54.620Z,9.08
2019-03-17T00:06:22.826Z,9.02
2019-03-17T00:08:51.018Z,9.06
2019-03-17T00:11:19.226Z,9.09
2019-03-17T00:13:47.415Z,9.10
2019-03-17T00:16:15.612Z,9.07
2019-03-17T00:18:43.805Z,9.09
2019-03-17T00:21:12.073Z,9.10
2019-03-17T00:23:40.269Z,9.12
2019-03-17T00:26:08.475Z,9.19
2019-03-17T00:28:36.665Z,9.20
2019-03-17T00:31:04.868Z,9.20
2019-03-17T00:33:33.071Z,9.20
2019-03-17T00:36:01.281Z,9.21
2019-03-17T00:38:29.470Z,9.24
2019-03-17T00:40:57.675Z,9.27
2019-03-17T00:43:25.866Z,9.29
2019-03-17T00:45:54.070Z,9.32
2019-03-17T00:48:23.888Z,9.32
2019-03-17T00:50:52.090Z,9.34
2019-03-17T00:53:20.309Z,9.36
2019-03-17T00:55:48.499Z,9.36
2019-03-17T00:58:18.316Z,9.34
2019-03-17T01:00:46.528Z,9.35
2019-03-17T01:03:14.712Z,9.35
2019-03-17T01:05:43.006Z,9.36
2019-03-17T01:08:11.190Z,9.36
2019-03-17T01:10:39.380Z,9.34
2019-03-17T01:13:07.588Z,9.35
2019-03-17T01:15:35.773Z,9.31
2019-03-17T01:18:03.976Z,9.38
2019-03-17T01:20:32.165Z,9.37
2019-03-17T01:23:00.359Z,9.39
2019-03-17T01:25:28.562Z,9.39
2019-03-17T01:27:56.749Z,9.40
2019-03-17T01:30:25.694Z,9.42
2019-03-17T01:32:53.962Z,9.42
2019-03-17T01:35:22.172Z,9.35
2019-03-17T01:37:51.549Z,9.39
2019-03-17T01:40:19.749Z,9.40
2019-03-17T01:42:47.937Z,9.42
2019-03-17T01:45:16.142Z,9.42
2019-03-17T01:47:44.329Z,9.44
2019-03-17T01:50:13.712Z,9.42
2019-03-17T01:52:41.913Z,9.41
2019-03-17T01:55:11.385Z,9.37
2019-03-17T01:57:39.848Z,9.32
2019-03-17T02:00:11.093Z,9.31
2019-03-17T02:02:39.291Z,9.26
2019-03-17T02:05:08.009Z,9.23
2019-03-17T02:07:36.219Z,9.19
2019-03-17T02:10:05.547Z,9.17
2019-03-17T02:12:33.755Z,9.15
2019-03-17T02:15:01.944Z,9.14
2019-03-17T02:17:30.156Z,9.16
2019-03-17T02:19:58.345Z,9.19
2019-03-17T02:22:26.789Z,9.20
2019-03-17T02:24:54.976Z,9.18
2019-03-17T02:27:23.182Z,9.16
2019-03-17T02:29:51.374Z,9.15
2019-03-17T02:32:21.207Z,9.13
2019-03-17T02:34:49.397Z,9.13
2019-03-17T02:37:17.595Z,9.11
2019-03-17T02:39:45.792Z,9.08
2019-03-17T02:42:14.014Z,9.08
2019-03-17T02:44:43.824Z,9.08
2019-03-17T02:47:12.013Z,9.01
2019-03-17T02:49:40.223Z,9.06
2019-03-17T02:52:08.418Z,9.06
2019-03-17T02:54:36.686Z,9.06
2019-03-17T02:57:04.817Z,9.09
2019-03-17T02:59:33.006Z,9.10
2019-03-17T03:02:01.212Z,9.08
2019-03-17T03:04:29.402Z,9.08
2019-03-17T03:06:57.594Z,9.09
2019-03-17T03:09:25.813Z,9.06
2019-03-17T03:11:53.995Z,9.05
2019-03-17T03:14:22.210Z,9.01
2019-03-17T03:16:50.415Z,8.99
2019-03-17T03:19:18.600Z,8.99
2019-03-17T03:21:46.800Z,8.99
2019-03-17T03:24:14.982Z,8.98
2019-03-17T03:26:44.318Z,8.98
2019-03-17T03:29:12.508Z,8.98
2019-03-17T03:31:40.775Z,8.98
2019-03-17T03:34:08.997Z,8.97
2019-03-17T03:36:37.191Z,8.96
2019-03-17T03:39:07.438Z,8.95
2019-03-17T03:41:35.712Z,8.91
2019-03-17T03:44:03.906Z,8.93
2019-03-17T03:46:32.109Z,8.92
2019-03-17T03:49:00.305Z,8.93
2019-03-17T03:51:28.503Z,8.94
2019-03-17T03:53:56.708Z,8.95
2019-03-17T03:56:24.918Z,8.93
2019-03-17T03:58:54.321Z,8.92
2019-03-17T04:01:22.524Z,8.90
2019-03-17T04:03:50.715Z,8.81
2019-03-17T04:06:26.333Z,8.78
2019-03-17T04:08:48.839Z,8.78
2019-03-17T04:11:17.128Z,8.73
2019-03-17T04:13:45.319Z,8.71
2019-03-17T04:16:13.535Z,8.68
2019-03-17T04:18:41.728Z,8.64
2019-03-17T04:21:09.974Z,8.59
2019-03-17T04:23:38.122Z,8.59
2019-03-17T04:26:06.589Z,8.56
2019-03-17T04:28:34.794Z,8.54
2019-03-17T04:31:02.982Z,8.53
2019-03-17T04:33:31.177Z,8.51
2019-03-17T04:35:59.389Z,8.48
2019-03-17T04:38:27.575Z,8.44
2019-03-17T04:40:55.780Z,8.42
2019-03-17T04:43:23.980Z,8.42
2019-03-17T04:45:52.179Z,8.39
2019-03-17T04:48:20.375Z,8.34
2019-03-17T04:50:48.580Z,8.37
2019-03-17T04:53:16.791Z,8.37
2019-03-17T04:55:44.990Z,8.37
2019-03-17T04:58:13.181Z,8.36
2019-03-17T05:00:41.386Z,8.38
2019-03-17T05:03:09.582Z,8.36
2019-03-17T05:05:37.800Z,8.36
2019-03-17T05:08:07.165Z,8.38
2019-03-17T05:10:35.383Z,8.38
2019-03-17T05:13:03.583Z,8.37
2019-03-17T05:15:31.803Z,8.36
2019-03-17T05:18:00.078Z,8.39
2019-03-17T05:20:28.284Z,8.41
2019-03-17T05:22:56.485Z,8.36
2019-03-17T05:25:24.700Z,8.36
2019-03-17T05:27:53.631Z,8.43
2019-03-17T05:30:23.468Z,8.51
2019-03-17T05:32:51.663Z,8.51
2019-03-17T05:35:19.882Z,8.50
2019-03-17T05:37:48.104Z,8.50
2019-03-17T05:40:16.275Z,8.53
2019-03-17T05:42:44.472Z,8.48
2019-03-17T05:45:12.677Z,8.45
2019-03-17T05:47:40.877Z,8.45
2019-03-17T05:50:09.625Z,8.46
2019-03-17T05:52:37.813Z,8.46
2019-03-17T05:55:08.512Z,8.14
2019-03-17T05:57:36.708Z,7.41
2019-03-17T06:00:10.590Z,7.01
2019-03-17T06:02:38.785Z,6.85
2019-03-17T06:05:07.824Z,6.80
2019-03-17T06:07:36.012Z,6.74
2019-03-17T06:10:04.681Z,6.71
2019-03-17T06:12:32.895Z,6.71
2019-03-17T06:15:01.092Z,6.69
2019-03-17T06:17:29.275Z,6.69
2019-03-17T06:19:57.478Z,6.68
2019-03-17T06:22:25.687Z,6.64
2019-03-17T06:24:53.885Z,6.58
2019-03-17T06:27:23.128Z,6.62
2019-03-17T06:29:51.318Z,6.58
2019-03-17T06:32:19.527Z,6.51
2019-03-17T06:34:47.719Z,6.46
2019-03-17T06:37:16.000Z,6.46
2019-03-17T06:39:45.820Z,6.44
2019-03-17T06:42:14.022Z,6.47
2019-03-17T06:44:42.221Z,6.44
2019-03-17T06:47:11.756Z,6.46
2019-03-17T06:49:39.957Z,6.47
2019-03-17T06:52:09.782Z,6.51
2019-03-17T06:54:37.974Z,6.50
2019-03-17T06:57:06.254Z,6.46
2019-03-17T06:59:34.909Z,6.46
2019-03-17T07:02:03.577Z,6.45
2019-03-17T07:04:31.764Z,6.44
2019-03-17T07:06:59.964Z,6.45
2019-03-17T07:09:28.157Z,6.60
2019-03-17T07:11:56.363Z,6.75
2019-03-17T07:14:24.629Z,6.64
2019-03-17T07:16:53.950Z,6.64
2019-03-17T07:19:23.852Z,6.62
2019-03-17T07:21:52.053Z,6.61
2019-03-17T07:24:20.243Z,6.63
2019-03-17T07:26:48.456Z,6.64
2019-03-17T07:29:16.646Z,6.67
2019-03-17T07:31:44.859Z,6.65
2019-03-17T07:34:14.097Z,6.63
2019-03-17T07:36:42.299Z,6.65
2019-03-17T07:39:12.034Z,6.66
2019-03-17T07:41:40.574Z,6.66
2019-03-17T07:44:08.769Z,6.71
2019-03-17T07:46:36.966Z,6.74
2019-03-17T07:49:06.344Z,6.80
2019-03-17T07:51:34.538Z,6.85
2019-03-17T07:54:02.731Z,6.89
2019-03-17T07:56:30.942Z,6.89
2019-03-17T07:58:59.133Z,6.86
2019-03-17T08:01:27.322Z,6.86
2019-03-17T08:03:55.529Z,6.83
2019-03-17T08:06:23.719Z,6.82
2019-03-17T08:08:51.926Z,6.73
2019-03-17T08:11:21.978Z,6.65
2019-03-17T08:13:51.311Z,6.55
2019-03-17T08:16:19.973Z,6.55
2019-03-17T08:18:48.177Z,6.48
2019-03-17T08:21:16.364Z,6.45
2019-03-17T08:23:44.575Z,6.45
2019-03-17T08:26:13.235Z,6.58
2019-03-17T08:28:41.429Z,6.52
2019-03-17T08:31:11.114Z,6.69
2019-03-17T08:33:39.302Z,6.92
2019-03-17T08:36:07.504Z,7.02
2019-03-17T08:38:35.689Z,6.86
2019-03-17T08:41:03.897Z,6.86
2019-03-17T08:43:32.089Z,6.79
2019-03-17T08:46:00.295Z,6.80
2019-03-17T08:48:28.487Z,6.84
2019-03-17T08:50:56.709Z,6.90
2019-03-17T08:53:24.902Z,7.00
2019-03-17T08:55:54.734Z,7.09
2019-03-17T08:58:23.941Z,7.17
2019-03-17T09:00:53.579Z,7.29
2019-03-17T09:03:23.422Z,7.37
2019-03-17T09:05:53.239Z,7.42
2019-03-17T09:08:33.846Z,7.46
2019-03-17T09:10:52.069Z,7.37
2019-03-17T09:13:20.264Z,7.33
2019-03-17T09:15:48.450Z,7.43
2019-03-17T09:18:16.655Z,7.43
2019-03-17T09:20:44.846Z,7.51
2019-03-17T09:23:13.051Z,7.51
2019-03-17T09:25:41.239Z,7.50
2019-03-17T09:28:09.692Z,7.49
2019-03-17T09:30:37.882Z,7.53
2019-03-17T09:33:06.089Z,7.56
2019-03-17T09:35:34.281Z,7.56
2019-03-17T09:38:02.490Z,7.51
2019-03-17T09:40:30.684Z,7.41
2019-03-17T09:42:58.898Z,7.40
2019-03-17T09:45:27.099Z,7.29
2019-03-17T09:47:55.298Z,7.12
2019-03-17T09:50:24.538Z,7.03
2019-03-17T09:52:53.195Z,7.04
2019-03-17T09:55:21.396Z,7.18
2019-03-17T09:57:51.213Z,7.34
2019-03-17T10:00:20.850Z,7.43
2019-03-17T10:02:49.052Z,7.48
2019-03-17T10:05:17.273Z,7.78
2019-03-17T10:07:45.457Z,7.78
2019-03-17T10:10:21.847Z,8.22
2019-03-17T10:12:50.043Z,8.17
2019-03-17T10:15:21.384Z,7.73
2019-03-17T10:17:49.819Z,7.73
2019-03-17T10:20:18.856Z,7.57
2019-03-17T10:22:47.043Z,7.67
2019-03-17T10:25:15.245Z,7.80
2019-03-17T10:27:43.517Z,7.99
2019-03-17T10:30:19.732Z,8.28
2019-03-17T10:32:47.919Z,8.28
2019-03-17T10:35:17.247Z,8.59
2019-03-17T10:37:45.440Z,8.76
2019-03-17T10:40:17.665Z,8.53
2019-03-17T10:42:45.861Z,8.53
2019-03-17T10:45:15.138Z,8.66
2019-03-17T10:47:43.306Z,8.66
2019-03-17T10:50:16.505Z,8.64
2019-03-17T10:52:44.700Z,8.49
2019-03-17T10:55:12.897Z,8.27
2019-03-17T10:57:41.090Z,8.04
2019-03-17T11:00:18.016Z,7.89
2019-03-17T11:02:46.201Z,7.89
2019-03-17T11:05:14.653Z,8.05
2019-03-17T11:07:42.860Z,8.30
2019-03-17T11:10:11.889Z,8.30
2019-03-17T11:12:40.157Z,8.39
2019-03-17T11:15:15.999Z,8.29
2019-03-17T11:17:44.205Z,8.20
2019-03-17T11:20:12.936Z,8.27
2019-03-17T11:22:41.130Z,8.41
2019-03-17T11:25:12.716Z,8.77
2019-03-17T11:27:40.917Z,9.09
2019-03-17T11:30:14.716Z,8.96
2019-03-17T11:32:43.956Z,8.79
2019-03-17T11:35:12.150Z,8.64
2019-03-17T11:37:40.355Z,8.53
2019-03-17T11:40:11.800Z,8.53
2019-03-17T11:42:41.304Z,8.67
2019-03-17T11:45:13.965Z,8.37
2019-03-17T11:47:43.674Z,8.37
2019-03-17T11:50:13.956Z,8.31
2019-03-17T11:52:42.160Z,8.46
2019-03-17T11:55:11.590Z,8.50
2019-03-17T11:57:39.791Z,8.69
2019-03-17T12:00:16.588Z,8.99
2019-03-17T12:02:46.416Z,9.06
2019-03-17T12:05:14.606Z,9.01
2019-03-17T12:07:43.277Z,8.77
2019-03-17T12:10:16.496Z,8.38
2019-03-17T12:12:44.701Z,7.94
2019-03-17T12:15:18.530Z,7.81
2019-03-17T12:17:46.726Z,7.82
2019-03-17T12:20:15.268Z,7.82
2019-03-17T12:22:43.461Z,7.80
2019-03-17T12:25:15.818Z,7.89
2019-03-17T12:27:44.010Z,8.10
2019-03-17T12:30:23.734Z,8.22
2019-03-17T12:32:52.559Z,8.36
2019-03-17T12:35:21.306Z,8.40
2019-03-17T12:37:49.511Z,8.29
2019-03-17T12:40:17.705Z,8.20
2019-03-17T12:42:45.902Z,8.00
2019-03-17T12:45:14.279Z,7.81
2019-03-17T12:47:42.468Z,7.81
2019-03-17T12:50:20.708Z,7.78
2019-03-17T12:52:48.956Z,7.72
2019-03-17T12:55:17.105Z,7.72
2019-03-17T12:57:45.300Z,7.73
2019-03-17T13:00:21.549Z,7.73
2019-03-17T13:02:49.740Z,7.72
2019-03-17T13:05:19.570Z,7.72
2019-03-17T13:07:47.769Z,7.45
2019-03-17T13:10:18.807Z,7.45
2019-03-17T13:12:46.996Z,7.25
2019-03-17T13:15:15.204Z,7.16
2019-03-17T13:17:43.402Z,7.23
2019-03-17T13:20:15.098Z,7.40
2019-03-17T13:22:44.578Z,7.40
2019-03-17T13:25:14.412Z,7.48
2019-03-17T13:27:42.603Z,7.56
2019-03-17T13:30:14.783Z,7.74
2019-03-17T13:32:44.600Z,7.86
2019-03-17T13:35:13.051Z,7.91
2019-03-17T13:37:41.255Z,7.80
2019-03-17T13:40:28.771Z,7.82
2019-03-17T13:42:49.116Z,7.94
2019-03-17T13:45:17.293Z,7.98
2019-03-17T13:47:45.496Z,7.87
2019-03-17T13:50:15.027Z,7.77
2019-03-17T13:52:43.228Z,7.71
2019-03-17T13:55:12.314Z,7.68
2019-03-17T13:57:42.826Z,7.64
2019-03-17T14:00:14.814Z,7.64
2019-03-17T14:02:43.491Z,7.66
2019-03-17T14:05:12.215Z,7.66
2019-03-17T14:07:40.869Z,7.72
2019-03-17T14:10:17.161Z,7.82
2019-03-17T14:12:45.356Z,7.82
2019-03-17T14:15:15.302Z,7.84
2019-03-17T14:17:44.918Z,7.84
2019-03-17T14:20:21.042Z,7.91
2019-03-17T14:22:49.744Z,7.97
2019-03-17T14:25:23.748Z,7.89
2019-03-17T14:27:51.957Z,7.93
2019-03-17T14:30:20.150Z,7.93
2019-03-17T14:32:48.420Z,7.90
2019-03-17T14:35:16.623Z,7.89
2019-03-17T14:37:44.811Z,7.83
2019-03-17T14:40:14.556Z,7.61
2019-03-17T14:42:43.028Z,7.53
2019-03-17T14:45:13.357Z,7.55
2019-03-17T14:47:41.553Z,7.62
2019-03-17T14:50:12.960Z,7.39
2019-03-17T14:52:41.161Z,7.43
2019-03-17T14:55:09.348Z,7.43
2019-03-17T14:57:37.552Z,7.50
2019-03-17T15:00:11.629Z,7.53
2019-03-17T15:02:39.843Z,7.50
2019-03-17T15:05:09.076Z,7.50
2019-03-17T15:07:37.325Z,7.48
2019-03-17T15:10:13.921Z,7.54
2019-03-17T15:12:42.110Z,7.53
2019-03-17T15:15:18.817Z,7.61
2019-03-17T15:17:47.577Z,7.55
2019-03-17T15:20:18.178Z,7.60
2019-03-17T15:22:46.375Z,7.60
2019-03-17T15:25:14.576Z,7.65
2019-03-17T15:27:42.766Z,7.65
2019-03-17T15:30:30.167Z,7.75
2019-03-17T15:32:58.360Z,7.62
2019-03-17T15:35:26.565Z,7.46
2019-03-17T15:37:54.751Z,7.43
2019-03-17T15:40:22.951Z,7.43
2019-03-17T15:42:51.135Z,7.46
2019-03-17T15:45:21.837Z,7.39
2019-03-17T15:47:50.050Z,7.34
2019-03-17T15:50:20.337Z,7.23
2019-03-17T15:52:48.722Z,7.23
2019-03-17T15:55:17.350Z,7.25
2019-03-17T15:57:45.552Z,7.25
2019-03-17T16:00:24.725Z,7.27
2019-03-17T16:02:46.939Z,7.37
2019-03-17T16:05:15.145Z,7.45
2019-03-17T16:07:43.361Z,7.42
2019-03-17T16:10:26.589Z,7.30
2019-03-17T16:12:54.790Z,7.10
2019-03-17T16:15:22.989Z,7.10
2019-03-17T16:17:51.181Z,7.04
2019-03-17T16:20:23.189Z,6.99
2019-03-17T16:22:51.378Z,6.99
2019-03-17T16:25:21.886Z,6.96
2019-03-17T16:27:50.341Z,7.00
2019-03-17T16:30:23.464Z,7.02
2019-03-17T16:32:51.681Z,6.98
2019-03-17T16:35:19.880Z,6.91
2019-03-17T16:37:48.085Z,6.89
2019-03-17T16:40:18.875Z,6.88
2019-03-17T16:42:47.088Z,6.85
2019-03-17T16:45:16.415Z,6.85
2019-03-17T16:47:44.620Z,6.85
2019-03-17T16:50:16.980Z,6.75
2019-03-17T16:52:45.183Z,6.75
2019-03-17T16:55:13.373Z,6.76
2019-03-17T16:57:41.647Z,6.70
2019-03-17T17:00:25.196Z,6.70
2019-03-17T17:02:53.492Z,6.68
2019-03-17T17:05:22.499Z,6.67
2019-03-17T17:07:50.715Z,6.65
2019-03-17T17:10:23.950Z,6.65
2019-03-17T17:12:52.148Z,6.60
2019-03-17T17:15:33.122Z,6.42
2019-03-17T17:18:01.328Z,6.32
2019-03-17T17:20:33.437Z,6.32
2019-03-17T17:23:01.644Z,6.29
2019-03-17T17:25:29.830Z,6.25
2019-03-17T17:27:58.402Z,6.25
2019-03-17T17:30:26.594Z,6.20
2019-03-17T17:32:54.818Z,6.20
2019-03-17T17:35:23.008Z,6.21
2019-03-17T17:37:51.207Z,6.20
2019-03-17T17:40:22.652Z,6.22
2019-03-17T17:42:50.868Z,6.21
2019-03-17T17:45:24.048Z,6.18
2019-03-17T17:47:52.248Z,6.13
2019-03-17T17:50:28.105Z,6.11
2019-03-17T17:52:56.974Z,6.07
2019-03-17T17:55:26.266Z,6.07
2019-03-17T17:57:54.481Z,6.03
2019-03-17T18:00:24.314Z,6.00
2019-03-17T18:02:52.546Z,5.95
2019-03-17T18:05:20.792Z,5.96
2019-03-17T18:07:49.968Z,5.96
2019-03-17T18:10:18.687Z,5.85
2019-03-17T18:12:46.954Z,5.85
2019-03-17T18:15:18.048Z,5.86
2019-03-17T18:17:46.255Z,5.87
2019-03-17T18:20:14.453Z,5.89
2019-03-17T18:22:42.651Z,5.85
2019-03-17T18:25:13.182Z,5.84
2019-03-17T18:27:41.395Z,5.79
2019-03-17T18:30:12.225Z,5.79
2019-03-17T18:32:40.414Z,5.74
2019-03-17T18:35:09.554Z,5.70
2019-03-17T18:37:37.762Z,5.66
2019-03-17T18:40:08.993Z,5.65
2019-03-17T18:42:37.200Z,5.65
2019-03-17T18:45:24.944Z,5.65
2019-03-17T18:47:53.146Z,5.58
2019-03-17T18:50:21.441Z,5.46
2019-03-17T18:52:49.881Z,5.39
2019-03-17T18:55:18.267Z,5.34
2019-03-17T18:57:46.483Z,5.35
2019-03-17T19:00:19.212Z,5.34
2019-03-17T19:02:48.897Z,5.29
2019-03-17T19:05:20.029Z,5.21
2019-03-17T19:07:47.407Z,5.21
2019-03-17T19:10:17.755Z,5.24
2019-03-17T19:12:46.423Z,5.25
2019-03-17T19:15:21.037Z,5.24
2019-03-17T19:17:49.257Z,5.23
2019-03-17T19:20:19.639Z,5.30
2019-03-17T19:22:47.846Z,5.33
2019-03-17T19:25:19.626Z,5.33
2019-03-17T19:27:47.836Z,5.37
2019-03-17T19:30:22.639Z,5.39
2019-03-17T19:32:50.808Z,5.42
2019-03-17T19:35:19.003Z,5.44
2019-03-17T19:37:47.209Z,5.46
2019-03-17T19:40:19.153Z,5.42
2019-03-17T19:42:58.112Z,5.35
2019-03-17T19:45:17.272Z,5.34
2019-03-17T19:47:45.473Z,5.34
2019-03-17T19:50:20.933Z,5.33
2019-03-17T19:52:49.129Z,5.31
2019-03-17T19:55:17.322Z,5.32
2019-03-17T19:57:46.358Z,5.28
2019-03-17T20:00:18.245Z,5.26
2019-03-17T20:02:47.699Z,5.28
2019-03-17T20:05:16.125Z,5.32
2019-03-17T20:07:44.570Z,5.35
2019-03-17T20:10:29.632Z,5.35
2019-03-17T20:13:10.439Z,5.40
2019-03-17T20:15:27.747Z,5.43
2019-03-17T20:17:55.955Z,5.48
2019-03-17T20:20:24.155Z,5.52
2019-03-17T20:22:52.356Z,5.55
2019-03-17T20:25:20.548Z,5.55
2019-03-17T20:27:48.752Z,5.53
2019-03-17T20:30:19.034Z,5.51
2019-03-17T20:32:47.245Z,5.47
2019-03-17T20:35:15.434Z,5.49
2019-03-17T20:37:43.633Z,5.51
2019-03-17T20:40:15.091Z,5.53
2019-03-17T20:42:43.289Z,5.50
2019-03-17T20:45:12.537Z,5.49
2019-03-17T20:47:40.802Z,5.51
2019-03-17T20:50:12.004Z,5.50
2019-03-17T20:52:40.193Z,5.50
2019-03-17T20:55:09.739Z,5.49
2019-03-17T20:57:38.184Z,5.47
2019-03-17T21:00:16.971Z,5.45
2019-03-17T21:02:45.157Z,5.45
2019-03-17T21:05:13.378Z,5.47
2019-03-17T21:07:41.825Z,5.49
2019-03-17T21:10:16.313Z,5.50
2019-03-17T21:12:44.590Z,5.52
2019-03-17T21:15:18.759Z,5.50
2019-03-17T21:17:46.973Z,5.50
2019-03-17T21:20:21.290Z,5.49
2019-03-17T21:22:49.490Z,5.47
2019-03-17T21:25:18.341Z,5.43
2019-03-17T21:27:46.541Z,5.42
2019-03-17T21:30:29.710Z,5.41
2019-03-17T21:32:57.921Z,5.37
2019-03-17T21:35:26.117Z,5.30
2019-03-17T21:37:54.325Z,5.30
2019-03-17T21:40:22.516Z,5.25
2019-03-17T21:42:50.726Z,5.24
2019-03-17T21:45:18.925Z,5.21
2019-03-17T21:47:47.184Z,5.18
2019-03-17T21:50:19.273Z,5.12
2019-03-17T21:52:47.487Z,5.07
2019-03-17T21:55:15.687Z,5.05
2019-03-17T21:57:44.127Z,5.03
2019-03-17T22:00:21.437Z,5.00
2019-03-17T22:02:49.631Z,4.96
2019-03-17T22:05:17.836Z,4.91
2019-03-17T22:07:49.999Z,4.88
2019-03-17T22:10:22.085Z,4.81
2019-03-17T22:12:50.277Z,4.68
2019-03-17T22:15:18.637Z,4.48
2019-03-17T22:17:46.851Z,4.21
2019-03-17T22:20:15.380Z,4.02
2019-03-17T22:22:43.582Z,3.87
2019-03-17T22:25:13.868Z,3.83
2019-03-17T22:27:42.078Z,3.83
2019-03-17T22:30:17.294Z,3.85
2019-03-17T22:32:45.498Z,3.85
2019-03-17T22:35:13.689Z,3.91
2019-03-17T22:37:41.887Z,3.99
2019-03-17T22:40:15.198Z,4.06
2019-03-17T22:42:43.383Z,4.09
2019-03-17T22:45:15.434Z,4.11
2019-03-17T22:47:43.633Z,4.13
2019-03-17T22:50:16.517Z,4.18
2019-03-17T22:52:44.697Z,4.20
2019-03-17T22:55:12.884Z,4.23
2019-03-17T22:57:41.099Z,4.24
2019-03-17T23:00:33.365Z,4.26
2019-03-17T23:03:01.574Z,4.32
2019-03-17T23:05:29.763Z,4.37
2019-03-17T23:07:57.957Z,4.38
2019-03-17T23:10:26.164Z,4.37
2019-03-17T23:12:54.357Z,4.37
2019-03-17T23:15:22.567Z,4.41
2019-03-17T23:17:50.776Z,4.43
2019-03-17T23:20:18.957Z,4.44
2019-03-17T23:22:47.165Z,4.44
2019-03-17T23:25:15.357Z,4.40
2019-03-17T23:27:43.573Z,4.41
2019-03-17T23:30:14.636Z,4.44
2019-03-17T23:32:42.832Z,4.48
2019-03-17T23:35:11.031Z,4.50
2019-03-17T23:37:39.220Z,4.54
2019-03-17T23:40:09.893Z,4.59
2019-03-17T23:42:38.128Z,4.65
2019-03-17T23:45:08.274Z,4.67
2019-03-17T23:47:36.468Z,4.69
2019-03-17T23:50:07.164Z,4.70
2019-03-17T23:52:35.360Z,4.72
2019-03-17T23:55:04.021Z,4.71
2019-03-17T23:57:33.516Z,4.75
